Time;durP1;ratioP1;P1;durP2;ratioP2;P2;SDS_P1;SDS_P2;PMS_P1;PMS_P2;Temp;Humidity;BMP_temperature;BMP_pressure;BME280_temperature;BME280_humidity;BME280_pressure;Samples;Min_cycle;Max_cycle;Signal;HPM_P1;HPM_P2
2021/03/18 00:01:30;;;;;;;0.00;0.00;;;13.60;65.90;;;;;;4195796;28;20056;-42
2021/03/18 00:03:51;;;;;;;0.10;0.10;;;13.60;66.00;;;;;;4195423;28;20135;-43
2021/03/18 00:06:13;;;;;;;0.00;0.00;;;13.60;66.00;;;;;;4195937;28;20053;-44
2021/03/18 00:08:35;;;;;;;0.00;0.00;;;13.50;66.00;;;;;;4195318;28;20126;-43
2021/03/18 00:10:58;;;;;;;0.00;0.00;;;13.50;66.10;;;;;;4195666;28;20129;-42
2021/03/18 00:13:21;;;;;;;0.00;0.00;;;13.50;66.10;;;;;;4195498;28;20523;-42
2021/03/18 00:15:43;;;;;;;0.00;0.00;;;13.50;66.20;;;;;;4195628;28;20056;-44
2021/03/18 00:18:05;;;;;;;0.00;0.00;;;13.50;66.20;;;;;;4195386;28;20052;-42
2021/03/18 00:20:26;;;;;;;0.00;0.00;;;13.50;66.20;;;;;;4179142;28;20056;-42
2021/03/18 00:22:47;;;;;;;0.57;0.43;;;13.50;66.40;;;;;;4178934;28;20094;-42
2021/03/18 00:25:10;;;;;;;0.00;0.00;;;13.50;66.40;;;;;;4183222;28;20561;-42
2021/03/18 00:27:32;;;;;;;0.28;0.28;;;13.40;66.40;;;;;;4201024;28;20052;-42
2021/03/18 00:29:53;;;;;;;0.00;0.00;;;13.40;66.50;;;;;;4201005;28;20126;-43
2021/03/18 00:32:14;;;;;;;0.00;0.00;;;13.50;66.50;;;;;;4201072;28;20052;-43
2021/03/18 00:34:36;;;;;;;0.00;0.00;;;13.40;66.60;;;;;;4200756;28;20665;-42
2021/03/18 00:36:57;;;;;;;0.00;0.00;;;13.40;66.80;;;;;;4201187;28;20060;-42
2021/03/18 00:39:18;;;;;;;0.00;0.00;;;13.40;66.80;;;;;;4200682;28;20084;-42
2021/03/18 00:41:39;;;;;;;0.00;0.00;;;13.40;66.80;;;;;;4200800;28;20063;-43
2021/03/18 00:44:01;;;;;;;0.03;0.03;;;13.40;66.80;;;;;;4200816;28;20131;-42
2021/03/18 00:46:22;;;;;;;0.00;0.00;;;13.30;66.80;;;;;;4199973;28;20048;-42
2021/03/18 00:48:44;;;;;;;0.00;0.00;;;13.30;66.90;;;;;;4199465;28;20490;-42
2021/03/18 00:51:07;;;;;;;0.00;0.00;;;13.40;67.00;;;;;;4191754;28;20088;-42
2021/03/18 00:53:31;;;;;;;0.00;0.00;;;13.30;67.00;;;;;;4199681;28;20135;-45
2021/03/18 00:55:53;;;;;;;0.00;0.00;;;13.30;67.10;;;;;;4200547;28;20048;-42
2021/03/18 00:58:15;;;;;;;0.10;0.10;;;13.30;67.10;;;;;;4200996;28;20055;-42
2021/03/18 01:00:38;;;;;;;;;;;13.30;67.20;;;;;;4201330;28;20506;-42
2021/03/18 01:02:59;;;;;;;0.00;0.00;;;13.20;67.30;;;;;;4199329;28;19926;-44
2021/03/18 01:05:28;;;;;;;0.00;0.00;;;13.20;67.20;;;;;;4200918;28;20506;-43
2021/03/18 01:07:49;;;;;;;0.00;0.00;;;13.20;67.30;;;;;;4199794;28;20052;-45
2021/03/18 01:10:14;;;;;;;0.00;0.00;;;13.20;67.40;;;;;;4200873;28;20495;-42
2021/03/18 01:12:37;;;;;;;0.00;0.00;;;13.20;67.50;;;;;;4200660;28;20056;-45
2021/03/18 01:14:58;;;;;;;0.15;0.15;;;13.20;67.60;;;;;;4184244;28;20457;-42
2021/03/18 01:17:20;;;;;;;0.10;0.10;;;13.20;67.70;;;;;;4185313;28;20415;-43
2021/03/18 01:19:41;;;;;;;0.00;0.00;;;13.10;67.70;;;;;;4200821;28;20056;-42
2021/03/18 01:22:03;;;;;;;;;;;13.10;67.70;;;;;;4201084;28;20052;-44
2021/03/18 01:24:24;;;;;;;0.00;0.00;;;13.10;67.90;;;;;;4200699;28;19924;-42
2021/03/18 01:26:46;;;;;;;0.05;0.05;;;13.10;67.80;;;;;;4200435;28;20059;-42
2021/03/18 01:29:06;;;;;;;0.00;0.00;;;13.10;67.90;;;;;;4200731;28;20495;-45
2021/03/18 01:31:28;;;;;;;0.00;0.00;;;13.10;68.00;;;;;;4200505;28;20049;-43
2021/03/18 01:33:50;;;;;;;0.00;0.00;;;13.10;68.00;;;;;;4200254;28;20102;-43
2021/03/18 01:36:12;;;;;;;0.00;0.00;;;13.10;68.00;;;;;;4200615;28;20090;-42
2021/03/18 01:38:34;;;;;;;0.00;0.00;;;13.00;68.10;;;;;;4196851;28;20088;-42
2021/03/18 01:40:56;;;;;;;0.00;0.00;;;13.00;68.10;;;;;;4197966;28;20056;-42
2021/03/18 01:43:17;;;;;;;0.90;0.35;;;13.00;68.20;;;;;;4197585;28;20049;-42
2021/03/18 01:45:38;;;;;;;0.00;0.00;;;13.00;68.30;;;;;;4197959;28;20094;-42
2021/03/18 01:48:00;;;;;;;0.00;0.00;;;13.00;68.40;;;;;;4197304;28;20056;-42
2021/03/18 01:50:25;;;;;;;0.00;0.00;;;13.00;68.40;;;;;;4197518;28;20549;-43
2021/03/18 01:52:46;;;;;;;0.00;0.00;;;12.90;68.40;;;;;;4197513;28;20052;-42
2021/03/18 01:55:10;;;;;;;0.35;0.28;;;12.90;68.40;;;;;;4197677;28;20071;-42
2021/03/18 01:57:31;;;;;;;0.00;0.00;;;12.90;68.50;;;;;;4197786;28;20056;-42
2021/03/18 01:59:53;;;;;;;0.17;0.17;;;12.90;68.40;;;;;;4197767;28;20059;-42
2021/03/18 02:02:14;;;;;;;0.40;0.40;;;12.90;68.40;;;;;;4197134;28;20056;-43
2021/03/18 02:04:35;;;;;;;0.00;0.00;;;12.90;68.50;;;;;;4197534;28;20671;-42
2021/03/18 02:06:56;;;;;;;0.00;0.00;;;12.90;68.60;;;;;;4197656;28;20520;-42
2021/03/18 02:09:18;;;;;;;0.00;0.00;;;12.90;68.60;;;;;;4197253;28;20060;-42
2021/03/18 02:11:38;;;;;;;0.00;0.00;;;12.90;68.60;;;;;;4197478;28;20127;-43
2021/03/18 02:13:59;;;;;;;0.00;0.00;;;12.90;68.70;;;;;;4197442;28;20139;-42
2021/03/18 02:16:21;;;;;;;0.00;0.00;;;12.90;69.00;;;;;;4197243;28;20057;-42
2021/03/18 02:18:48;;;;;;;;;;;12.90;68.70;;;;;;4197704;28;20435;-42
2021/03/18 02:21:57;;;;;;;0.00;0.00;;;12.90;69.80;;;;;;4197344;28;19924;-43
2021/03/18 02:24:33;;;;;;;0.00;0.00;;;12.80;68.80;;;;;;4196921;28;20502;-42
2021/03/18 02:27:31;;;;;;;0.00;0.00;;;12.80;68.80;;;;;;4197148;28;20121;-42
2021/03/18 02:30:28;;;;;;;0.00;0.00;;;12.80;68.90;;;;;;4197116;28;20122;-42
2021/03/18 02:33:14;;;;;;;0.10;0.10;;;12.80;69.90;;;;;;4187797;28;20055;-42
2021/03/18 02:35:40;;;;;;;0.15;0.15;;;12.80;69.10;;;;;;4196917;28;20044;-42
2021/03/18 02:38:06;;;;;;;0.00;0.00;;;12.80;69.10;;;;;;4196989;28;20507;-42
2021/03/18 02:40:30;;;;;;;0.00;0.00;;;12.80;69.10;;;;;;4197159;28;20056;-42
2021/03/18 02:42:56;;;;;;;0.10;0.10;;;12.80;69.10;;;;;;4196695;28;20088;-42
2021/03/18 02:45:19;;;;;;;0.00;0.00;;;12.80;69.10;;;;;;4197007;28;20048;-42
2021/03/18 02:47:41;;;;;;;0.00;0.00;;;12.80;69.10;;;;;;4196497;28;20132;-42
2021/03/18 02:50:05;;;;;;;0.00;0.00;;;12.70;69.10;;;;;;4196785;28;20052;-42
2021/03/18 02:52:29;;;;;;;0.00;0.00;;;12.70;69.10;;;;;;4196769;28;20052;-43
2021/03/18 02:54:53;;;;;;;0.00;0.00;;;12.70;69.10;;;;;;4196207;28;20052;-43
2021/03/18 02:57:17;;;;;;;0.05;0.05;;;12.70;69.20;;;;;;4196453;28;20048;-42
2021/03/18 02:59:41;;;;;;;0.00;0.00;;;12.70;69.30;;;;;;4196762;28;20491;-42
2021/03/18 03:02:04;;;;;;;0.10;0.10;;;12.70;69.30;;;;;;4196077;28;20080;-42
2021/03/18 03:04:28;;;;;;;0.00;0.00;;;12.70;69.40;;;;;;4196605;28;20129;-42
2021/03/18 03:06:51;;;;;;;0.00;0.00;;;12.70;69.40;;;;;;4196504;28;20049;-42
2021/03/18 03:09:13;;;;;;;0.00;0.00;;;12.70;69.40;;;;;;4196604;28;20057;-42
2021/03/18 03:11:36;;;;;;;0.00;0.00;;;12.70;69.40;;;;;;4180073;28;20555;-47
2021/03/18 03:13:58;;;;;;;0.00;0.00;;;12.70;69.40;;;;;;4179947;28;20496;-46
2021/03/18 03:16:22;;;;;;;1.00;1.00;;;12.70;69.40;;;;;;4179810;28;20056;-42
2021/03/18 03:18:45;;;;;;;0.00;0.00;;;12.70;69.40;;;;;;4196248;28;20195;-43
2021/03/18 03:21:06;;;;;;;0.00;0.00;;;12.70;69.40;;;;;;4196296;28;20052;-42
2021/03/18 03:23:29;;;;;;;0.05;0.05;;;12.60;69.40;;;;;;4196163;28;20422;-42
2021/03/18 03:25:51;;;;;;;0.10;0.10;;;12.60;69.40;;;;;;4195619;28;20126;-42
2021/03/18 03:28:14;;;;;;;0.10;0.10;;;12.60;69.40;;;;;;4195796;28;20062;-42
2021/03/18 03:30:35;;;;;;;0.00;0.00;;;12.60;69.50;;;;;;4196169;28;20133;-42
2021/03/18 03:32:56;;;;;;;0.03;0.03;;;12.60;69.50;;;;;;4195906;28;20060;-46
2021/03/18 03:35:19;;;;;;;0.00;0.00;;;12.60;69.50;;;;;;4196228;28;20593;-45
2021/03/18 03:37:41;;;;;;;0.10;0.10;;;12.60;70.40;;;;;;4195842;28;20059;-43
2021/03/18 03:40:04;;;;;;;0.00;0.00;;;12.60;69.50;;;;;;4195849;28;20537;-43
2021/03/18 03:42:26;;;;;;;2.60;2.03;;;12.60;69.50;;;;;;4195579;28;20056;-45
2021/03/18 03:44:47;;;;;;;5.15;0.47;;;12.60;69.60;;;;;;4195702;28;20060;-50
2021/03/18 03:47:09;;;;;;;0.00;0.00;;;12.60;69.60;;;;;;4195883;28;20493;-46
2021/03/18 03:49:31;;;;;;;0.00;0.00;;;12.50;69.60;;;;;;4195961;28;20102;-46
2021/03/18 03:52:01;;;;;;;0.98;0.98;;;12.50;69.60;;;;;;4195900;28;20063;-43
2021/03/18 03:54:24;;;;;;;0.00;0.00;;;12.50;69.70;;;;;;4195635;28;20048;-42
2021/03/18 03:56:54;;;;;;;0.00;0.00;;;12.50;69.70;;;;;;4195769;28;20102;-42
2021/03/18 03:59:19;;;;;;;0.00;0.00;;;12.50;69.70;;;;;;4195782;28;20059;-42
2021/03/18 04:01:44;;;;;;;0.00;0.00;;;12.50;69.70;;;;;;4195070;28;20053;-42
2021/03/18 04:04:24;;;;;;;1.15;1.15;;;12.50;69.70;;;;;;4178163;28;20056;-42
2021/03/18 04:06:48;;;;;;;0.00;0.00;;;12.50;69.70;;;;;;4185036;28;20482;-42
2021/03/18 04:09:14;;;;;;;0.13;0.13;;;12.50;69.80;;;;;;4194174;28;20071;-42
2021/03/18 04:11:37;;;;;;;0.00;0.00;;;12.50;69.80;;;;;;4195691;28;20105;-42
2021/03/18 04:13:58;;;;;;;0.32;0.32;;;12.50;69.90;;;;;;4193441;28;20077;-42
2021/03/18 04:16:23;;;;;;;0.00;0.00;;;12.50;69.90;;;;;;4195704;28;20049;-42
2021/03/18 04:18:45;;;;;;;0.00;0.00;;;12.50;69.90;;;;;;4195694;28;20129;-42
2021/03/18 04:21:09;;;;;;;0.00;0.00;;;12.50;69.90;;;;;;4195494;28;20106;-42
2021/03/18 04:23:31;;;;;;;0.00;0.00;;;12.40;69.90;;;;;;4195614;28;20090;-42
2021/03/18 04:25:52;;;;;;;;;;;12.40;69.90;;;;;;4179475;28;20060;-41
2021/03/18 04:28:14;;;;;;;0.00;0.00;;;12.50;70.00;;;;;;4179091;28;19954;-42
2021/03/18 04:30:37;;;;;;;0.00;0.00;;;12.40;69.90;;;;;;4178962;28;20574;-42
2021/03/18 04:33:00;;;;;;;0.00;0.00;;;12.40;69.90;;;;;;4191547;28;20055;-42
2021/03/18 04:35:23;;;;;;;0.00;0.00;;;12.40;69.90;;;;;;4195334;28;20067;-43
2021/03/18 04:37:44;;;;;;;0.00;0.00;;;12.40;70.00;;;;;;4195450;28;20150;-42
2021/03/18 04:40:08;;;;;;;0.00;0.00;;;12.40;70.00;;;;;;4195130;28;20075;-42
2021/03/18 04:42:29;;;;;;;0.00;0.00;;;12.40;70.00;;;;;;4195022;28;20049;-42
2021/03/18 04:44:51;;;;;;;0.10;0.10;;;12.40;70.10;;;;;;4195464;28;20287;-42
2021/03/18 04:47:15;;;;;;;0.00;0.00;;;12.40;70.10;;;;;;4194996;28;20083;-46
2021/03/18 04:49:41;;;;;;;0.00;0.00;;;12.40;70.10;;;;;;4195457;28;20045;-45
2021/03/18 04:52:02;;;;;;;0.00;0.00;;;12.40;70.10;;;;;;4195053;28;20068;-48
2021/03/18 04:54:23;;;;;;;0.00;0.00;;;12.40;70.20;;;;;;4195440;28;20049;-44
2021/03/18 04:56:45;;;;;;;;;;;12.40;70.20;;;;;;4195735;28;20413;-42
2021/03/18 04:59:08;;;;;;;0.00;0.00;;;12.40;70.20;;;;;;4195353;28;20028;-43
2021/03/18 05:01:30;;;;;;;0.30;0.30;;;12.40;70.20;;;;;;4194052;28;20130;-42
2021/03/18 05:03:52;;;;;;;0.00;0.00;;;12.30;70.10;;;;;;4195159;28;20053;-43
2021/03/18 05:06:14;;;;;;;0.00;0.00;;;12.40;70.20;;;;;;4195380;28;20053;-42
2021/03/18 05:08:38;;;;;;;0.00;0.00;;;12.40;70.30;;;;;;4195319;28;20052;-43
2021/03/18 05:11:02;;;;;;;0.00;0.00;;;12.30;70.20;;;;;;4194845;28;20056;-42
2021/03/18 05:13:25;;;;;;;0.00;0.00;;;12.30;70.20;;;;;;4188187;28;20044;-43
2021/03/18 05:15:47;;;;;;;0.00;0.00;;;12.30;70.20;;;;;;4198334;28;20052;-46
2021/03/18 05:18:11;;;;;;;0.00;0.00;;;12.30;70.30;;;;;;4181835;28;20392;-42
2021/03/18 05:20:33;;;;;;;0.00;0.00;;;12.30;70.30;;;;;;4181734;28;20138;-42
2021/03/18 05:22:55;;;;;;;0.00;0.00;;;12.30;71.30;;;;;;4181611;28;20423;-42
2021/03/18 05:25:20;;;;;;;0.20;0.20;;;12.30;70.40;;;;;;4181655;28;20418;-46
2021/03/18 05:27:42;;;;;;;0.00;0.00;;;12.30;70.30;;;;;;4181618;28;20159;-42
2021/03/18 05:30:03;;;;;;;;;;;12.30;70.40;;;;;;4181936;28;20495;-42
2021/03/18 05:32:26;;;;;;;0.00;0.00;;;12.30;70.50;;;;;;4193004;28;19924;-43
2021/03/18 05:34:47;;;;;;;0.00;0.00;;;12.30;70.50;;;;;;4198058;28;20056;-42
2021/03/18 05:37:08;;;;;;;0.00;0.00;;;12.30;70.50;;;;;;4198051;28;20154;-42
2021/03/18 05:39:30;;;;;;;0.00;0.00;;;12.30;70.80;;;;;;4197877;28;20130;-42
2021/03/18 05:41:51;;;;;;;1.45;1.35;;;12.20;70.80;;;;;;4197218;28;20049;-43
2021/03/18 05:44:12;;;;;;;0.08;0.08;;;12.30;70.90;;;;;;4197882;28;20060;-42
2021/03/18 05:46:34;;;;;;;0.30;0.30;;;12.30;70.80;;;;;;4197628;28;20048;-42
2021/03/18 05:48:57;;;;;;;0.00;0.00;;;12.30;70.90;;;;;;4197850;28;20059;-43
2021/03/18 05:51:19;;;;;;;0.55;0.52;;;12.20;70.80;;;;;;4181295;28;20570;-43
2021/03/18 05:53:43;;;;;;;0.05;0.05;;;12.20;71.00;;;;;;4181089;28;20049;-42
2021/03/18 05:56:05;;;;;;;0.00;0.00;;;12.30;71.10;;;;;;4181321;28;20111;-43
2021/03/18 05:58:29;;;;;;;0.00;0.00;;;12.20;70.90;;;;;;4181059;28;20053;-42
2021/03/18 06:00:52;;;;;;;0.00;0.00;;;12.20;70.90;;;;;;4195276;28;20053;-43
2021/03/18 06:03:13;;;;;;;0.00;0.00;;;12.30;71.00;;;;;;4180930;28;20442;-42
2021/03/18 06:05:50;;;;;;;0.08;0.08;;;12.20;70.90;;;;;;4180924;28;20491;-44
2021/03/18 06:08:12;;;;;;;0.00;0.00;;;12.20;70.90;;;;;;4188303;28;20062;-44
2021/03/18 06:10:33;;;;;;;0.00;0.00;;;12.20;71.10;;;;;;4197514;28;20052;-44
2021/03/18 06:12:56;;;;;;;0.00;0.00;;;12.20;71.10;;;;;;4197236;28;20067;-42
2021/03/18 06:15:18;;;;;;;0.00;0.00;;;12.20;71.20;;;;;;4197311;28;20057;-43
2021/03/18 06:17:39;;;;;;;0.00;0.00;;;12.20;71.20;;;;;;4193170;28;20434;-42
2021/03/18 06:20:00;;;;;;;0.00;0.00;;;12.20;71.80;;;;;;4195049;28;20053;-43
2021/03/18 06:22:33;;;;;;;2.88;0.88;;;12.20;72.00;;;;;;4197376;28;20044;-41
2021/03/18 06:24:54;;;;;;;0.00;0.00;;;12.20;72.60;;;;;;4195531;28;20414;-42
2021/03/18 06:27:21;;;;;;;0.00;0.00;;;12.30;73.00;;;;;;4197013;28;20076;-45
2021/03/18 06:29:43;;;;;;;0.00;0.00;;;12.40;74.10;;;;;;4197325;28;20080;-42
2021/03/18 06:32:18;;;;;;;0.47;0.47;;;12.40;74.00;;;;;;4196592;28;20056;-43
2021/03/18 06:34:43;;;;;;;0.22;0.22;;;12.40;73.50;;;;;;4196539;28;20137;-45
2021/03/18 06:37:04;;;;;;;0.10;0.10;;;12.40;73.20;;;;;;4195999;28;20048;-41
2021/03/18 06:39:30;;;;;;;0.00;0.00;;;12.40;73.10;;;;;;4196274;28;20068;-49
2021/03/18 06:41:57;;;;;;;0.00;0.00;;;12.40;73.10;;;;;;4196826;28;20418;-45
2021/03/18 06:44:21;;;;;;;0.20;0.20;;;12.30;73.10;;;;;;4196343;28;20052;-43
2021/03/18 06:46:42;;;;;;;6.65;2.85;;;12.30;73.00;;;;;;4196638;28;20408;-42
2021/03/18 06:49:11;;;;;;;0.00;0.00;;;12.30;72.90;;;;;;4195431;28;20133;-42
2021/03/18 06:51:32;;;;;;;0.00;0.00;;;12.30;72.80;;;;;;4197022;28;20481;-42
2021/03/18 06:53:55;;;;;;;0.00;0.00;;;12.30;72.90;;;;;;4196892;28;20766;-43
2021/03/18 06:56:22;;;;;;;1.95;1.08;;;12.30;73.40;;;;;;4196223;28;20353;-42
2021/03/18 06:58:43;;;;;;;0.00;0.00;;;12.30;73.10;;;;;;4196825;28;20064;-42
2021/03/18 07:01:06;;;;;;;0.10;0.10;;;12.30;73.00;;;;;;4196382;28;20056;-43
2021/03/18 07:03:30;;;;;;;0.10;0.10;;;12.20;72.90;;;;;;4196467;28;20145;-43
2021/03/18 07:05:51;;;;;;;0.00;0.00;;;12.30;73.00;;;;;;4196533;28;20055;-42
2021/03/18 07:08:22;;;;;;;0.75;0.75;;;12.20;73.00;;;;;;4196162;28;20079;-42
2021/03/18 07:10:43;;;;;;;1.55;1.45;;;12.20;72.90;;;;;;4196485;28;20799;-43
2021/03/18 07:13:23;;;;;;;14.00;0.77;;;12.20;73.10;;;;;;4196427;28;20057;-42
2021/03/18 07:15:44;;;;;;;0.00;0.00;;;12.20;73.00;;;;;;4196672;28;20060;-43
2021/03/18 07:18:05;;;;;;;0.00;0.00;;;12.20;73.10;;;;;;4195575;28;20052;-43
2021/03/18 07:20:27;;;;;;;0.10;0.10;;;12.20;73.10;;;;;;4196488;28;20510;-44
2021/03/18 07:22:51;;;;;;;2.00;1.90;;;12.20;73.10;;;;;;4196497;28;20166;-43
2021/03/18 07:25:13;;;;;;;0.00;0.00;;;12.20;74.00;;;;;;4196472;28;20044;-45
2021/03/18 07:27:39;;;;;;;0.00;0.00;;;12.10;73.00;;;;;;4196356;28;20045;-45
2021/03/18 07:30:00;;;;;;;0.00;0.00;;;12.20;73.10;;;;;;4196214;28;20137;-43
2021/03/18 07:32:21;;;;;;;0.00;0.00;;;12.20;73.10;;;;;;4196364;28;20122;-42
2021/03/18 07:34:44;;;;;;;0.93;0.63;;;12.10;73.00;;;;;;4196158;28;20056;-44
2021/03/18 07:37:07;;;;;;;0.00;0.00;;;12.10;73.10;;;;;;4195748;28;20204;-44
2021/03/18 07:39:27;;;;;;;0.00;0.00;;;12.10;73.10;;;;;;4195983;28;20438;-42
2021/03/18 07:41:49;;;;;;;0.00;0.00;;;12.10;73.00;;;;;;4195971;28;20060;-42
2021/03/18 07:44:10;;;;;;;0.08;0.08;;;12.10;73.00;;;;;;4195680;28;20928;-41
2021/03/18 07:46:31;;;;;;;;;;;12.10;73.00;;;;;;4186775;28;20091;-41
2021/03/18 07:48:54;;;;;;;0.35;0.35;;;12.10;73.10;;;;;;4196134;28;19943;-43
2021/03/18 07:51:20;;;;;;;0.00;0.00;;;12.10;73.10;;;;;;4192270;28;20059;-42
2021/03/18 07:53:47;;;;;;;0.65;0.65;;;12.10;73.00;;;;;;4195960;28;20053;-43
2021/03/18 07:56:14;;;;;;;0.00;0.00;;;12.10;73.00;;;;;;4195766;28;20052;-44
2021/03/18 07:58:39;;;;;;;0.00;0.00;;;12.10;73.10;;;;;;4195872;28;20059;-42
2021/03/18 08:01:00;;;;;;;0.00;0.00;;;12.10;73.20;;;;;;4195806;28;20080;-46
2021/03/18 08:03:30;;;;;;;0.00;0.00;;;12.10;73.10;;;;;;4195701;28;20059;-45
2021/03/18 08:05:52;;;;;;;0.15;0.15;;;12.10;73.10;;;;;;4179204;28;20149;-42
2021/03/18 08:08:41;;;;;;;1.45;0.47;;;12.10;73.10;;;;;;4179044;28;20053;-43
2021/03/18 08:11:04;;;;;;;0.38;0.38;;;12.10;73.20;;;;;;4177942;28;20067;-42
2021/03/18 08:13:33;;;;;;;0.00;0.00;;;12.10;73.10;;;;;;4190679;28;20114;-43
2021/03/18 08:15:54;;;;;;;0.00;0.00;;;12.10;73.20;;;;;;4195508;28;20049;-42
2021/03/18 08:18:39;;;;;;;0.00;0.00;;;12.10;73.10;;;;;;4195608;28;20058;-42
2021/03/18 08:21:08;;;;;;;0.00;0.00;;;12.10;73.10;;;;;;4195742;28;20076;-42
2021/03/18 08:23:41;;;;;;;0.00;0.00;;;12.10;73.10;;;;;;4194386;28;20143;-42
2021/03/18 08:26:04;;;;;;;5.32;3.30;;;12.10;73.10;;;;;;4194750;28;20094;-42
2021/03/18 08:28:36;;;;;;;0.00;0.00;;;12.10;73.10;;;;;;4179226;28;20076;-51
2021/03/18 08:30:57;;;;;;;0.90;0.90;;;12.10;73.10;;;;;;4179239;28;20045;-49
2021/03/18 08:33:31;;;;;;;0.00;0.00;;;12.10;73.10;;;;;;4178198;28;20586;-43
2021/03/18 08:36:29;;;;;;;0.10;0.10;;;12.10;73.10;;;;;;4179189;28;20053;-45
2021/03/18 08:38:52;;;;;;;0.38;0.38;;;12.10;73.20;;;;;;4178966;28;20056;-42
2021/03/18 08:41:32;;;;;;;0.45;0.45;;;12.10;73.20;;;;;;4178890;28;20068;-42
2021/03/18 08:44:14;;;;;;;0.00;0.00;;;12.10;73.20;;;;;;4182626;28;20524;-43
2021/03/18 08:46:41;;;;;;;0.00;0.00;;;12.10;73.20;;;;;;4195962;28;20044;-44
2021/03/18 08:49:29;;;;;;;0.00;0.00;;;12.10;73.20;;;;;;4198977;28;20492;-42
2021/03/18 08:51:52;;;;;;;0.00;0.00;;;12.10;73.20;;;;;;4198840;28;20508;-42
2021/03/18 08:54:52;;;;;;;0.00;0.00;;;12.10;73.20;;;;;;4198906;28;20130;-43
2021/03/18 08:57:22;;;;;;;1.65;1.20;;;12.10;73.20;;;;;;4198657;28;20673;-42
2021/03/18 08:59:47;;;;;;;0.00;0.00;;;12.10;73.10;;;;;;4198523;28;20056;-43
2021/03/18 09:02:10;;;;;;;0.00;0.00;;;12.10;73.00;;;;;;4198366;28;20049;-42
2021/03/18 09:04:38;;;;;;;0.00;0.00;;;12.10;73.00;;;;;;4198495;28;20509;-44
2021/03/18 09:07:03;;;;;;;0.00;0.00;;;12.10;73.10;;;;;;4198483;28;20468;-42
2021/03/18 09:09:25;;;;;;;0.20;0.20;;;12.10;73.10;;;;;;4198433;28;20053;-43
2021/03/18 09:11:47;;;;;;;0.00;0.00;;;12.10;73.20;;;;;;4197324;28;20076;-42
2021/03/18 09:14:15;;;;;;;1.17;1.08;;;12.10;73.20;;;;;;4197275;28;20469;-44
2021/03/18 09:16:36;;;;;;;0.00;0.00;;;12.10;73.20;;;;;;4195962;28;20086;-41
2021/03/18 09:18:59;;;;;;;0.00;0.00;;;12.10;73.30;;;;;;4194529;28;20059;-42
2021/03/18 09:21:21;;;;;;;0.10;0.10;;;12.00;73.30;;;;;;4198042;28;20055;-43
2021/03/18 09:23:43;;;;;;;0.00;0.00;;;12.10;73.30;;;;;;4198289;28;20049;-42
2021/03/18 09:26:08;;;;;;;1.05;1.05;;;12.10;73.30;;;;;;4198311;28;20044;-42
2021/03/18 09:28:32;;;;;;;0.00;0.00;;;12.10;73.30;;;;;;4198226;28;20044;-42
2021/03/18 09:30:55;;;;;;;4.95;1.88;;;12.00;73.20;;;;;;4198203;28;20088;-42
2021/03/18 09:33:18;;;;;;;0.00;0.00;;;12.10;73.30;;;;;;4198114;28;20487;-43
2021/03/18 09:35:40;;;;;;;0.00;0.00;;;12.10;73.30;;;;;;4198037;28;20071;-42
2021/03/18 09:38:01;;;;;;;0.38;0.38;;;12.10;73.20;;;;;;4197987;28;20048;-42
2021/03/18 09:40:32;;;;;;;0.80;0.80;;;12.10;73.30;;;;;;4197986;28;20146;-43
2021/03/18 09:42:54;;;;;;;0.20;0.20;;;12.10;73.40;;;;;;4197806;28;20582;-42
2021/03/18 09:45:19;;;;;;;0.00;0.00;;;12.10;73.40;;;;;;4197901;28;20138;-43
2021/03/18 09:47:47;;;;;;;0.00;0.00;;;12.00;73.30;;;;;;4197875;28;20733;-43
2021/03/18 09:50:09;;;;;;;0.00;0.00;;;12.10;73.40;;;;;;4197885;28;20056;-45
2021/03/18 09:52:30;;;;;;;0.10;0.10;;;12.10;73.50;;;;;;4197857;28;20052;-44
2021/03/18 09:54:53;;;;;;;0.10;0.10;;;12.10;73.90;;;;;;4197736;28;20076;-42
2021/03/18 09:57:14;;;;;;;0.35;0.35;;;12.10;73.70;;;;;;4197646;28;20076;-42
2021/03/18 09:59:36;;;;;;;0.00;0.00;;;12.10;73.60;;;;;;4196566;28;20423;-42
2021/03/18 10:01:57;;;;;;;0.00;0.00;;;12.10;73.70;;;;;;4187628;28;20044;-42
2021/03/18 10:04:19;;;;;;;0.20;0.20;;;12.00;73.60;;;;;;4197416;28;20056;-41
2021/03/18 10:06:43;;;;;;;2.75;1.27;;;12.00;73.70;;;;;;4197389;28;20123;-42
2021/03/18 10:09:18;;;;;;;0.00;0.00;;;12.00;73.70;;;;;;4197132;28;20060;-42
2021/03/18 10:11:40;;;;;;;0.00;0.00;;;12.00;73.80;;;;;;4197400;28;20087;-42
2021/03/18 10:14:01;;;;;;;;;;;12.00;73.90;;;;;;4198005;28;20106;-43
2021/03/18 10:16:23;;;;;;;0.10;0.10;;;12.00;74.00;;;;;;4197571;28;20014;-42
2021/03/18 10:18:44;;;;;;;0.00;0.00;;;12.00;74.00;;;;;;4197416;28;20052;-44
2021/03/18 10:21:06;;;;;;;0.00;0.00;;;12.10;73.90;;;;;;4197243;28;20076;-46
2021/03/18 10:23:27;;;;;;;0.00;0.00;;;12.10;74.10;;;;;;4196484;28;20040;-42
2021/03/18 10:25:48;;;;;;;0.20;0.20;;;12.10;74.00;;;;;;4196875;28;20127;-42
2021/03/18 10:28:12;;;;;;;0.00;0.00;;;12.10;74.20;;;;;;4191364;28;20048;-42
2021/03/18 10:30:35;;;;;;;0.00;0.00;;;12.10;74.00;;;;;;4196644;28;20509;-42
2021/03/18 10:33:08;;;;;;;0.05;0.05;;;12.10;73.80;;;;;;4196250;28;20040;-43
2021/03/18 10:35:30;;;;;;;0.40;0.40;;;12.10;73.80;;;;;;4196423;28;20521;-45
2021/03/18 10:37:51;;;;;;;0.00;0.00;;;12.10;73.70;;;;;;4179560;28;20045;-42
2021/03/18 10:40:19;;;;;;;0.00;0.00;;;12.10;73.70;;;;;;4193346;28;20110;-42
2021/03/18 10:42:40;;;;;;;0.00;0.00;;;12.10;73.50;;;;;;4196997;28;20151;-43
2021/03/18 10:45:23;;;;;;;0.10;0.10;;;12.10;73.50;;;;;;4196833;28;20497;-42
2021/03/18 10:47:45;;;;;;;0.00;0.00;;;12.00;73.50;;;;;;4196339;28;20052;-42
2021/03/18 10:50:11;;;;;;;0.00;0.00;;;12.00;73.50;;;;;;4195961;28;20053;-42
2021/03/18 10:52:32;;;;;;;0.03;0.03;;;12.00;73.50;;;;;;4196938;28;20128;-42
2021/03/18 10:54:55;;;;;;;0.15;0.10;;;12.00;73.60;;;;;;4196517;28;20053;-42
2021/03/18 10:57:16;;;;;;;0.00;0.00;;;12.00;73.50;;;;;;4196626;28;20056;-42
2021/03/18 10:59:38;;;;;;;;;;;12.00;73.60;;;;;;4196795;28;20101;-41
2021/03/18 11:02:04;;;;;;;0.00;0.00;;;12.00;73.70;;;;;;4196062;28;19924;-41
2021/03/18 11:04:25;;;;;;;0.20;0.20;;;12.00;73.60;;;;;;4186199;28;20098;-42
2021/03/18 11:06:49;;;;;;;0.13;0.13;;;12.00;73.70;;;;;;4189579;28;20417;-41
2021/03/18 11:09:12;;;;;;;0.40;0.40;;;12.00;73.70;;;;;;4196131;28;20056;-42
2021/03/18 11:11:33;;;;;;;0.00;0.00;;;12.00;73.60;;;;;;4196226;28;20700;-42
2021/03/18 11:14:07;;;;;;;0.00;0.00;;;12.00;73.60;;;;;;4196478;28;20056;-42
2021/03/18 11:16:27;;;;;;;0.25;0.25;;;11.90;73.60;;;;;;4196373;28;20076;-43
2021/03/18 11:18:50;;;;;;;16.58;1.30;;;11.90;73.50;;;;;;4196183;28;20076;-42
2021/03/18 11:21:20;;;;;;;0.00;0.00;;;12.00;73.50;;;;;;4195537;28;20058;-42
2021/03/18 11:23:42;;;;;;;0.25;0.25;;;11.90;73.40;;;;;;4195541;28;20121;-42
2021/03/18 11:26:05;;;;;;;0.00;0.00;;;12.00;73.40;;;;;;4195654;28;20056;-42
2021/03/18 11:28:27;;;;;;;0.82;0.82;;;12.00;73.40;;;;;;4189465;28;20048;-41
2021/03/18 11:30:48;;;;;;;1.58;1.48;;;12.00;73.30;;;;;;4195976;28;20056;-41
2021/03/18 11:33:15;;;;;;;0.00;0.00;;;12.00;73.40;;;;;;4195721;28;20135;-41
2021/03/18 11:35:37;;;;;;;0.10;0.10;;;12.00;73.40;;;;;;4196003;28;20056;-41
2021/03/18 11:37:58;;;;;;;0.73;0.73;;;12.00;73.40;;;;;;4180754;28;20052;-43
2021/03/18 11:40:29;;;;;;;0.47;0.47;;;12.00;73.40;;;;;;4185258;28;20060;-44
2021/03/18 11:42:51;;;;;;;0.03;0.03;;;12.00;73.30;;;;;;4195911;28;20052;-41
2021/03/18 11:45:13;;;;;;;0.00;0.00;;;12.00;73.30;;;;;;4196014;28;20052;-41
2021/03/18 11:47:34;;;;;;;0.00;0.00;;;12.00;73.30;;;;;;4195942;28;20060;-41
2021/03/18 11:49:55;;;;;;;0.15;0.15;;;12.00;73.20;;;;;;4195879;28;20060;-41
2021/03/18 11:52:16;;;;;;;0.13;0.13;;;12.00;73.20;;;;;;4195744;28;20834;-41
2021/03/18 11:54:38;;;;;;;0.00;0.00;;;12.00;73.20;;;;;;4195847;28;20481;-41
2021/03/18 11:56:59;;;;;;;;;;;12.00;73.30;;;;;;4196195;28;20461;-41
2021/03/18 11:59:20;;;;;;;0.45;0.45;;;12.00;73.40;;;;;;4195046;28;19928;-41
2021/03/18 12:01:41;;;;;;;0.00;0.00;;;12.00;73.40;;;;;;4195528;28;20048;-41
2021/03/18 12:04:02;;;;;;;;;;;12.00;74.30;;;;;;4196202;28;20556;-47
2021/03/18 12:06:23;;;;;;;0.35;0.35;;;12.00;73.50;;;;;;4195819;28;19924;-41
2021/03/18 12:08:44;;;;;;;1.20;1.15;;;12.00;73.40;;;;;;4195795;28;20052;-42
2021/03/18 12:11:06;;;;;;;0.22;0.22;;;12.00;73.30;;;;;;4195758;28;20056;-47
2021/03/18 12:13:28;;;;;;;0.00;0.00;;;12.00;73.30;;;;;;4195734;28;20048;-44
2021/03/18 12:15:48;;;;;;;;;;;12.00;73.30;;;;;;4196216;28;20578;-41
2021/03/18 12:18:10;;;;;;;0.38;0.28;;;12.00;73.30;;;;;;4195438;28;19924;-43
2021/03/18 12:20:31;;;;;;;0.00;0.00;;;12.00;73.40;;;;;;4195761;28;20049;-42
2021/03/18 12:22:52;;;;;;;0.00;0.00;;;12.00;73.40;;;;;;4195302;28;20052;-42
2021/03/18 12:25:15;;;;;;;0.80;0.80;;;12.00;73.40;;;;;;4195485;28;20694;-43
2021/03/18 12:27:36;;;;;;;0.10;0.10;;;12.00;73.30;;;;;;4195606;28;20492;-44
2021/03/18 12:29:58;;;;;;;0.43;0.40;;;12.00;73.40;;;;;;4195629;28;20052;-47
2021/03/18 12:32:19;;;;;;;0.00;0.00;;;12.00;73.40;;;;;;4195581;28;20040;-43
2021/03/18 12:34:41;;;;;;;0.00;0.00;;;12.10;73.50;;;;;;4195528;28;20056;-40